Time;durP1;ratioP1;P1;durP2;ratioP2;P2;SDS_P1;SDS_P2;PMS_P1;PMS_P2;Temp;Humidity;BMP_temperature;BMP_pressure;BME280_temperature;BME280_humidity;BME280_pressure;Samples;Min_cycle;Max_cycle;Signal;HPM_P1;HPM_P2
2024/04/10 00:00:15;;;;;;;2.87;2.07;;;24.30;56.30;;;;;;5526968;26;20217;-69
2024/04/10 00:02:41;;;;;;;1.90;1.60;;;24.30;56.30;;;;;;5526311;26;20226;-69
2024/04/10 00:05:08;;;;;;;2.60;1.87;;;24.30;56.30;;;;;;5525698;26;20268;-69
2024/04/10 00:07:34;;;;;;;1.83;1.60;;;24.30;56.30;;;;;;5527185;25;20507;-68
2024/04/10 00:09:59;;;;;;;3.00;1.90;;;24.30;56.30;;;;;;5526871;26;20446;-70
2024/04/10 00:12:25;;;;;;;1.90;1.70;;;24.30;56.30;;;;;;5526709;25;20233;-69
2024/04/10 00:14:51;;;;;;;3.63;2.57;;;24.30;56.20;;;;;;5526873;26;20264;-70
2024/04/10 00:17:16;;;;;;;2.47;1.93;;;24.30;56.40;;;;;;5526944;26;20321;-69
2024/04/10 00:19:42;;;;;;;2.73;1.80;;;24.30;56.30;;;;;;5526950;26;20213;-68
2024/04/10 00:22:07;;;;;;;1.80;1.40;;;24.30;56.30;;;;;;5526120;26;20276;-69
2024/04/10 00:24:33;;;;;;;2.23;1.70;;;24.30;56.30;;;;;;5526147;26;20229;-69
2024/04/10 00:26:58;;;;;;;2.50;2.03;;;24.30;56.30;;;;;;5526342;26;20592;-67
2024/04/10 00:29:24;;;;;;;2.30;1.90;;;24.30;56.30;;;;;;5526576;26;20213;-69
2024/04/10 00:31:53;;;;;;;2.00;1.77;;;24.30;56.30;;;;;;5526863;26;20284;-68
2024/04/10 00:34:18;;;;;;;2.07;1.70;;;24.30;56.30;;;;;;5526699;25;20774;-69
2024/04/10 00:36:44;;;;;;;2.43;1.70;;;24.30;56.30;;;;;;5526785;26;20517;-67
2024/04/10 00:39:10;;;;;;;2.03;1.60;;;24.30;56.30;;;;;;5526580;25;20213;-69
2024/04/10 00:41:38;;;;;;;2.37;1.87;;;24.30;56.20;;;;;;5524383;26;21046;-69
2024/04/10 00:44:04;;;;;;;2.60;1.73;;;24.30;56.20;;;;;;5526180;25;20506;-70
2024/04/10 00:46:29;;;;;;;1.77;1.43;;;24.30;56.20;;;;;;5524545;26;20449;-70
2024/04/10 00:48:55;;;;;;;1.70;1.33;;;24.30;56.20;;;;;;5526389;25;20540;-70
2024/04/10 00:51:23;;;;;;;2.40;1.80;;;24.30;56.20;;;;;;5525916;26;20305;-70
2024/04/10 00:53:49;;;;;;;1.90;1.70;;;24.30;56.20;;;;;;5526128;25;20574;-69
2024/04/10 00:56:15;;;;;;;1.70;1.40;;;24.20;56.10;;;;;;5525956;26;20446;-70
2024/04/10 00:58:42;;;;;;;2.07;1.80;;;24.20;56.10;;;;;;5525776;25;20446;-70
2024/04/10 01:01:09;;;;;;;2.30;1.90;;;24.20;56.10;;;;;;5525819;25;20963;-69
2024/04/10 01:03:37;;;;;;;1.93;1.60;;;24.20;56.10;;;;;;5525426;25;21126;-70
2024/04/10 01:06:05;;;;;;;1.90;1.60;;;24.20;56.10;;;;;;5526108;25;20590;-69
2024/04/10 01:08:35;;;;;;;2.13;1.77;;;24.20;56.10;;;;;;5526444;25;20453;-70
2024/04/10 01:11:03;;;;;;;1.90;1.40;;;24.20;56.10;;;;;;5525962;25;20474;-68
2024/04/10 01:13:31;;;;;;;2.50;1.80;;;24.20;56.10;;;;;;5525750;25;20514;-69
2024/04/10 01:15:57;;;;;;;2.83;2.03;;;24.30;56.20;;;;;;5525623;25;21094;-70
2024/04/10 01:18:23;;;;;;;2.53;1.73;;;24.20;56.20;;;;;;5525484;26;20442;-67
2024/04/10 01:20:49;;;;;;;2.00;1.67;;;24.20;56.20;;;;;;5525952;25;20289;-69
2024/04/10 01:23:15;;;;;;;1.67;1.57;;;24.20;56.20;;;;;;5525843;25;20458;-69
2024/04/10 01:25:41;;;;;;;1.60;1.50;;;24.20;56.20;;;;;;5525696;25;20506;-70
2024/04/10 01:28:07;;;;;;;2.07;1.40;;;24.20;56.20;;;;;;5526096;25;20800;-69
2024/04/10 01:30:33;;;;;;;1.80;1.53;;;24.20;56.20;;;;;;5525805;25;20533;-69
2024/04/10 01:32:59;;;;;;;2.23;1.50;;;24.20;56.20;;;;;;5525930;25;20497;-69
2024/04/10 01:35:24;;;;;;;2.83;1.60;;;24.20;56.10;;;;;;5525624;26;20221;-69
2024/04/10 01:37:50;;;;;;;2.60;1.63;;;24.20;56.10;;;;;;5523704;26;20570;-69
2024/04/10 01:40:15;;;;;;;2.43;1.63;;;24.20;56.10;;;;;;5525393;26;20272;-70
2024/04/10 01:42:45;;;;;;;2.83;2.00;;;24.20;56.10;;;;;;5525298;26;20272;-69
2024/04/10 01:45:11;;;;;;;2.03;1.47;;;24.20;56.10;;;;;;5525369;25;20273;-69
2024/04/10 01:47:37;;;;;;;2.80;1.80;;;24.20;56.10;;;;;;5525698;25;20811;-69
2024/04/10 01:50:02;;;;;;;2.37;1.80;;;24.20;56.10;;;;;;5525606;26;20255;-69
2024/04/10 01:52:28;;;;;;;1.70;1.43;;;24.20;56.00;;;;;;5525810;25;20273;-69
2024/04/10 01:54:54;;;;;;;2.57;1.77;;;24.20;56.00;;;;;;5526005;26;20213;-70
2024/04/10 01:57:21;;;;;;;1.60;1.43;;;24.20;56.10;;;;;;5525738;26;20791;-70
2024/04/10 01:59:47;;;;;;;2.27;1.50;;;24.20;56.00;;;;;;5525347;25;20831;-69
2024/04/10 02:02:13;;;;;;;1.80;1.50;;;24.20;56.00;;;;;;5525757;25;20462;-70
2024/04/10 02:04:39;;;;;;;1.63;1.50;;;24.20;56.00;;;;;;5525759;25;20579;-70
2024/04/10 02:07:05;;;;;;;1.50;1.20;;;24.20;56.00;;;;;;5525762;25;21015;-69
2024/04/10 02:09:30;;;;;;;2.17;1.63;;;24.20;56.00;;;;;;5525541;26;20442;-69
2024/04/10 02:11:57;;;;;;;2.20;1.60;;;24.20;56.00;;;;;;5525664;26;20229;-69
2024/04/10 02:14:22;;;;;;;1.73;1.30;;;24.20;56.00;;;;;;5525406;25;21099;-68
2024/04/10 02:16:48;;;;;;;2.43;1.50;;;24.10;56.00;;;;;;5525328;25;20447;-69
2024/04/10 02:19:14;;;;;;;1.70;1.30;;;24.10;56.00;;;;;;5525365;25;20570;-69
2024/04/10 02:21:39;;;;;;;1.70;1.40;;;24.10;56.10;;;;;;5525594;26;20622;-70
2024/04/10 02:24:06;;;;;;;1.40;1.20;;;24.10;56.60;;;;;;5525731;25;20221;-69
2024/04/10 02:26:32;;;;;;;1.60;1.33;;;24.10;56.10;;;;;;5524797;25;20221;-69
2024/04/10 02:28:58;;;;;;;1.20;1.10;;;24.20;56.20;;;;;;5525128;25;20811;-69
2024/04/10 02:31:24;;;;;;;2.83;1.70;;;24.20;56.20;;;;;;5525954;25;20514;-70
2024/04/10 02:33:50;;;;;;;1.73;1.13;;;24.10;56.10;;;;;;5525174;25;20438;-69
2024/04/10 02:36:16;;;;;;;1.93;1.37;;;24.10;56.00;;;;;;5525648;25;20260;-70
2024/04/10 02:38:41;;;;;;;2.10;1.70;;;24.10;56.00;;;;;;5524973;26;20221;-68
2024/04/10 02:41:07;;;;;;;1.77;1.63;;;24.10;56.00;;;;;;5525417;26;20272;-70
2024/04/10 02:43:33;;;;;;;2.37;1.80;;;24.10;56.00;;;;;;5524802;26;20647;-70
2024/04/10 02:46:00;;;;;;;2.53;1.53;;;24.10;56.00;;;;;;5525372;26;20216;-68
2024/04/10 02:48:27;;;;;;;2.03;1.47;;;24.10;56.00;;;;;;5524765;25;20490;-70
2024/04/10 02:50:53;;;;;;;2.03;1.63;;;24.10;56.00;;;;;;5525190;25;20549;-69
2024/04/10 02:53:19;;;;;;;1.60;1.30;;;24.10;56.00;;;;;;5524792;25;20814;-69
2024/04/10 02:55:45;;;;;;;2.20;1.40;;;24.10;56.30;;;;;;5524524;25;20510;-68
2024/04/10 02:58:11;;;;;;;1.80;1.40;;;24.10;56.00;;;;;;5525127;25;20462;-69
2024/04/10 03:00:57;;;;;;;1.67;1.20;;;24.10;56.00;;;;;;5525216;25;20462;-70
2024/04/10 03:03:24;;;;;;;2.47;1.97;;;24.10;55.90;;;;;;5524351;25;20438;-68
2024/04/10 03:06:04;;;;;;;2.40;1.40;;;24.10;56.00;;;;;;5524620;25;20457;-70
2024/04/10 03:08:30;;;;;;;2.67;1.50;;;24.10;56.00;;;;;;5524410;25;20453;-68
2024/04/10 03:10:56;;;;;;;1.87;1.33;;;24.10;56.00;;;;;;5524577;25;20458;-69
2024/04/10 03:13:22;;;;;;;1.97;1.60;;;24.10;56.00;;;;;;5524273;25;20543;-69
2024/04/10 03:15:47;;;;;;;1.57;1.13;;;24.10;56.00;;;;;;5524836;25;20523;-69
2024/04/10 03:18:13;;;;;;;2.20;1.43;;;24.10;56.00;;;;;;5524556;26;20264;-69
2024/04/10 03:20:38;;;;;;;1.53;1.13;;;24.10;56.00;;;;;;5524467;26;20332;-69
2024/04/10 03:23:04;;;;;;;2.23;1.57;;;24.10;56.00;;;;;;5523824;26;20233;-69
2024/04/10 03:25:33;;;;;;;2.03;1.60;;;24.10;56.00;;;;;;5524366;25;20288;-71
2024/04/10 03:27:59;;;;;;;1.70;1.47;;;24.10;56.00;;;;;;5524530;25;21103;-69
2024/04/10 03:30:28;;;;;;;1.40;1.00;;;24.10;56.00;;;;;;5524219;25;20465;-69
2024/04/10 03:32:54;;;;;;;1.87;1.30;;;24.10;56.10;;;;;;5524605;25;20450;-70
2024/04/10 03:35:20;;;;;;;1.93;1.17;;;24.10;56.10;;;;;;5524280;26;20509;-68
2024/04/10 03:37:46;;;;;;;1.43;1.17;;;24.10;56.10;;;;;;5525471;25;20229;-70
2024/04/10 03:40:11;;;;;;;1.70;1.40;;;24.10;56.10;;;;;;5527487;25;20213;-69
2024/04/10 03:42:37;;;;;;;1.40;1.07;;;24.10;56.10;;;;;;5527681;26;20498;-69
2024/04/10 03:45:03;;;;;;;1.50;1.20;;;24.10;56.10;;;;;;5527607;25;20716;-70
2024/04/10 03:47:29;;;;;;;1.40;1.30;;;24.10;56.10;;;;;;5527653;25;20438;-68
2024/04/10 03:49:56;;;;;;;1.73;1.23;;;24.10;56.10;;;;;;5525927;26;21177;-69
2024/04/10 03:52:21;;;;;;;1.30;1.00;;;24.10;56.00;;;;;;5527759;25;20569;-70
2024/04/10 03:54:47;;;;;;;1.90;1.10;;;24.10;56.00;;;;;;5527566;25;20445;-69
2024/04/10 03:57:12;;;;;;;2.30;1.33;;;24.10;56.00;;;;;;5527747;26;20213;-69
2024/04/10 03:59:38;;;;;;;1.70;1.30;;;24.10;55.90;;;;;;5527894;26;20213;-69
2024/04/10 04:02:03;;;;;;;1.77;1.23;;;24.10;56.00;;;;;;5527998;26;20580;-69
2024/04/10 04:04:29;;;;;;;1.50;1.13;;;24.00;55.90;;;;;;5527175;26;20406;-69
2024/04/10 04:06:55;;;;;;;1.60;1.40;;;24.00;55.90;;;;;;5527752;26;20730;-69
2024/04/10 04:09:22;;;;;;;1.60;1.20;;;24.00;55.80;;;;;;5527369;25;20217;-70
2024/04/10 04:11:47;;;;;;;1.73;1.20;;;24.00;55.90;;;;;;5527262;25;20450;-70
2024/04/10 04:14:16;;;;;;;1.40;1.10;;;24.00;55.90;;;;;;5527082;26;20819;-68
2024/04/10 04:16:42;;;;;;;1.97;1.47;;;24.10;56.00;;;;;;5527210;25;20264;-69
2024/04/10 04:19:07;;;;;;;1.30;1.10;;;24.10;56.00;;;;;;5527106;26;20445;-69
2024/04/10 04:21:33;;;;;;;1.30;1.10;;;24.10;56.00;;;;;;5527669;26;20256;-68
2024/04/10 04:23:59;;;;;;;2.60;0.90;;;24.00;55.90;;;;;;5526949;26;20213;-69
2024/04/10 04:26:25;;;;;;;1.20;1.00;;;24.00;55.90;;;;;;5526983;26;20233;-70
2024/04/10 04:28:51;;;;;;;1.87;1.33;;;24.00;55.90;;;;;;5526916;25;20276;-69
2024/04/10 04:31:17;;;;;;;1.70;1.20;;;24.00;55.80;;;;;;5527019;25;20458;-69
2024/04/10 04:33:43;;;;;;;1.60;1.20;;;24.10;55.80;;;;;;5526777;26;20498;-70
2024/04/10 04:36:10;;;;;;;1.63;1.30;;;24.00;55.80;;;;;;5527177;25;20276;-68
2024/04/10 04:38:36;;;;;;;2.17;1.20;;;24.10;55.80;;;;;;5527273;25;20446;-69
2024/04/10 04:41:02;;;;;;;1.80;1.10;;;24.00;55.70;;;;;;5526672;25;20519;-68
2024/04/10 04:43:28;;;;;;;1.60;1.50;;;24.00;55.70;;;;;;5526941;25;20446;-67
2024/04/10 04:45:53;;;;;;;1.70;1.13;;;24.00;56.30;;;;;;5526749;26;20497;-68
2024/04/10 04:48:19;;;;;;;1.23;0.97;;;24.10;55.90;;;;;;5526731;26;20271;-70
2024/04/10 04:50:46;;;;;;;1.40;1.27;;;24.00;55.90;;;;;;5526155;26;20341;-69
2024/04/10 04:53:12;;;;;;;1.60;1.30;;;24.00;55.90;;;;;;5526814;25;20217;-69
2024/04/10 04:55:39;;;;;;;1.50;1.20;;;24.00;55.90;;;;;;5526509;25;20502;-69
2024/04/10 04:58:06;;;;;;;1.40;1.27;;;24.00;55.90;;;;;;5526562;25;20442;-70
2024/04/10 05:00:32;;;;;;;1.50;1.03;;;24.00;56.00;;;;;;5524207;25;20569;-69
2024/04/10 05:02:58;;;;;;;1.73;1.20;;;24.10;56.10;;;;;;5532336;25;20462;-69
2024/04/10 05:05:24;;;;;;;1.47;1.00;;;24.10;56.10;;;;;;5525389;25;20777;-68
2024/04/10 05:07:50;;;;;;;2.13;1.17;;;24.10;56.00;;;;;;5525568;25;20490;-67
2024/04/10 05:10:16;;;;;;;1.47;1.10;;;24.00;55.90;;;;;;5525440;26;20217;-68
2024/04/10 05:12:42;;;;;;;1.57;1.10;;;24.10;56.00;;;;;;5525514;25;20217;-68
2024/04/10 05:15:12;;;;;;;1.80;1.20;;;24.10;55.90;;;;;;5525551;25;20423;-69
2024/04/10 05:17:46;;;;;;;2.47;1.40;;;24.10;55.90;;;;;;5526323;25;20524;-69
2024/04/10 05:20:14;;;;;;;4.67;1.50;;;24.10;55.90;;;;;;5525784;25;20488;-69
2024/04/10 05:22:42;;;;;;;3.20;1.40;;;24.10;56.00;;;;;;5525366;26;20461;-69
2024/04/10 05:25:09;;;;;;;1.67;1.20;;;24.10;56.00;;;;;;5526036;25;20499;-68
2024/04/10 05:27:37;;;;;;;2.10;1.10;;;24.10;56.10;;;;;;5525452;25;20434;-69
2024/04/10 05:30:07;;;;;;;1.10;0.90;;;24.10;56.10;;;;;;5525967;25;20450;-69
2024/04/10 05:32:42;;;;;;;1.47;1.30;;;24.10;56.10;;;;;;5525867;25;20893;-68
2024/04/10 05:35:14;;;;;;;1.90;1.17;;;24.10;56.10;;;;;;5525909;25;20437;-68
2024/04/10 05:37:40;;;;;;;1.17;0.90;;;24.10;56.00;;;;;;5525179;25;20450;-69
2024/04/10 05:40:09;;;;;;;1.40;1.10;;;24.10;56.00;;;;;;5525214;26;20568;-70
2024/04/10 05:42:38;;;;;;;2.50;1.10;;;24.10;55.90;;;;;;5525241;25;20553;-68
2024/04/10 05:45:05;;;;;;;1.30;1.00;;;24.10;55.90;;;;;;5525580;25;20559;-69
2024/04/10 05:47:31;;;;;;;3.10;1.07;;;24.10;55.90;;;;;;5524903;25;20434;-68
2024/04/10 05:49:57;;;;;;;1.30;1.00;;;24.10;55.90;;;;;;5525612;25;20530;-69
2024/04/10 05:52:23;;;;;;;1.60;1.00;;;24.10;55.90;;;;;;5524959;25;21036;-69
2024/04/10 05:54:53;;;;;;;1.20;0.97;;;24.10;55.90;;;;;;5525262;25;20442;-69
2024/04/10 05:57:19;;;;;;;2.23;1.67;;;24.10;55.90;;;;;;5524909;25;20218;-69
2024/04/10 05:59:44;;;;;;;2.03;1.40;;;24.10;55.90;;;;;;5525085;25;20454;-67
2024/04/10 06:02:10;;;;;;;1.70;1.20;;;24.10;55.80;;;;;;5522839;26;20462;-69
2024/04/10 06:04:36;;;;;;;2.10;1.10;;;24.10;55.80;;;;;;5524563;25;20255;-69
2024/04/10 06:07:02;;;;;;;1.77;1.50;;;24.10;55.80;;;;;;5524963;26;20289;-69
2024/04/10 06:09:28;;;;;;;3.33;1.10;;;24.10;55.80;;;;;;5524611;25;20263;-69
2024/04/10 06:11:54;;;;;;;2.37;1.17;;;24.10;55.70;;;;;;5524578;25;20466;-69
2024/04/10 06:14:19;;;;;;;1.63;1.10;;;24.10;55.80;;;;;;5524674;26;20766;-69
2024/04/10 06:16:46;;;;;;;1.40;1.03;;;24.10;55.70;;;;;;5524647;26;20329;-68
2024/04/10 06:19:12;;;;;;;2.73;1.10;;;24.10;55.50;;;;;;5524873;25;20220;-68
2024/04/10 06:21:38;;;;;;;2.57;1.20;;;24.10;55.20;;;;;;5524909;25;20526;-69
2024/04/10 06:24:05;;;;;;;2.00;1.27;;;24.10;55.00;;;;;;5524529;26;20790;-69
2024/04/10 06:26:31;;;;;;;3.00;1.30;;;24.10;54.90;;;;;;5524531;25;20225;-68
2024/04/10 06:28:56;;;;;;;1.63;0.90;;;24.10;54.80;;;;;;5524682;25;20454;-69
2024/04/10 06:31:22;;;;;;;2.17;1.20;;;24.10;55.30;;;;;;5524480;26;20336;-69
2024/04/10 06:33:48;;;;;;;3.53;1.57;;;24.10;54.60;;;;;;5524143;25;20297;-68
2024/04/10 06:36:14;;;;;;;2.17;1.60;;;24.10;54.60;;;;;;5524293;26;20454;-68
2024/04/10 06:38:39;;;;;;;3.70;1.50;;;24.00;54.40;;;;;;5524315;26;20263;-69
2024/04/10 06:41:09;;;;;;;2.80;1.10;;;24.00;54.30;;;;;;5522691;26;20225;-68
2024/04/10 06:43:34;;;;;;;3.20;1.30;;;24.00;54.20;;;;;;5524232;26;20263;-68
2024/04/10 06:46:08;;;;;;;1.87;1.20;;;24.00;54.10;;;;;;5524149;26;20450;-69
2024/04/10 06:48:33;;;;;;;2.23;1.13;;;24.00;54.00;;;;;;5523936;25;20692;-69
2024/04/10 06:51:01;;;;;;;1.40;1.00;;;24.00;54.00;;;;;;5523750;26;20470;-67
2024/04/10 06:53:27;;;;;;;2.23;1.30;;;24.00;54.00;;;;;;5523846;25;20769;-68
2024/04/10 06:55:57;;;;;;;1.20;0.93;;;24.00;54.10;;;;;;5524578;25;20454;-68
2024/04/10 06:58:24;;;;;;;2.73;0.87;;;24.00;54.20;;;;;;5524640;25;20221;-68
2024/04/10 07:01:02;;;;;;;1.90;1.13;;;24.00;54.20;;;;;;5524880;25;20579;-68
2024/04/10 07:03:28;;;;;;;1.67;1.10;;;24.00;54.40;;;;;;5525113;25;20462;-68
2024/04/10 07:06:11;;;;;;;1.87;1.10;;;24.00;54.40;;;;;;5524355;25;20450;-68
2024/04/10 07:08:42;;;;;;;2.97;1.30;;;24.00;54.40;;;;;;5523842;25;20431;-69
2024/04/10 07:11:11;;;;;;;1.93;1.13;;;24.00;54.60;;;;;;5523140;25;20466;-69
2024/04/10 07:13:56;;;;;;;3.50;1.30;;;24.00;54.70;;;;;;5525820;25;20450;-68
2024/04/10 07:16:32;;;;;;;1.90;1.40;;;24.00;54.70;;;;;;5527097;25;20498;-69
2024/04/10 07:18:58;;;;;;;2.03;1.00;;;24.00;54.70;;;;;;5526889;25;21019;-69
2024/04/10 07:21:24;;;;;;;2.00;1.10;;;24.00;54.70;;;;;;5526796;26;20465;-69
2024/04/10 07:23:50;;;;;;;2.23;1.03;;;24.00;54.70;;;;;;5526805;26;20517;-68
2024/04/10 07:26:20;;;;;;;1.83;1.03;;;24.00;54.70;;;;;;5526974;25;20306;-69
2024/04/10 07:28:48;;;;;;;1.73;1.00;;;24.00;54.70;;;;;;5526882;25;20489;-68
2024/04/10 07:31:16;;;;;;;1.87;1.00;;;24.00;54.70;;;;;;5526881;25;20461;-68
2024/04/10 07:33:42;;;;;;;1.97;1.70;;;24.00;54.70;;;;;;5526640;25;20470;-67
2024/04/10 07:36:12;;;;;;;1.30;1.00;;;24.00;54.70;;;;;;5527089;26;20959;-69
2024/04/10 07:38:39;;;;;;;1.77;1.20;;;24.00;54.70;;;;;;5526815;25;20221;-69
2024/04/10 07:41:05;;;;;;;2.03;1.20;;;24.00;54.70;;;;;;5526872;25;20454;-69
2024/04/10 07:43:32;;;;;;;2.73;1.00;;;24.00;54.90;;;;;;5526586;26;20881;-68
2024/04/10 07:46:12;;;;;;;2.07;1.03;;;24.00;54.90;;;;;;5526790;25;20686;-69
2024/04/10 07:48:39;;;;;;;2.23;1.30;;;24.00;55.00;;;;;;5524670;26;20441;-68
2024/04/10 07:51:07;;;;;;;1.40;0.90;;;24.00;55.10;;;;;;5526300;25;21066;-68
2024/04/10 07:53:36;;;;;;;1.53;1.00;;;24.00;55.10;;;;;;5524786;26;20434;-68
2024/04/10 07:56:02;;;;;;;2.03;1.10;;;24.00;55.10;;;;;;5526676;25;20454;-69
2024/04/10 07:58:29;;;;;;;1.77;0.87;;;24.10;55.30;;;;;;5526444;25;20434;-68
2024/04/10 08:00:59;;;;;;;1.20;1.00;;;24.10;55.30;;;;;;5526559;25;20516;-69
2024/04/10 08:03:26;;;;;;;1.83;1.13;;;24.10;55.20;;;;;;5526694;25;21017;-67
2024/04/10 08:05:52;;;;;;;1.30;0.80;;;24.10;55.10;;;;;;5526525;25;20539;-69
2024/04/10 08:08:18;;;;;;;2.10;0.83;;;24.10;55.10;;;;;;5526460;25;20984;-70
2024/04/10 08:10:44;;;;;;;1.40;1.00;;;24.10;55.10;;;;;;5526794;25;20515;-68
2024/04/10 08:13:10;;;;;;;2.50;1.33;;;24.10;55.10;;;;;;5526163;25;20961;-67
2024/04/10 08:15:37;;;;;;;1.20;1.07;;;24.10;55.10;;;;;;5526016;26;20505;-68
2024/04/10 08:18:04;;;;;;;2.13;1.17;;;24.10;55.10;;;;;;5525782;25;20734;-68
2024/04/10 08:20:29;;;;;;;2.60;1.00;;;24.10;55.10;;;;;;5525744;25;20519;-67
2024/04/10 08:22:55;;;;;;;1.73;0.97;;;24.10;55.10;;;;;;5525581;26;20825;-68
2024/04/10 08:25:20;;;;;;;1.97;1.00;;;24.10;55.10;;;;;;5524927;26;20229;-69
2024/04/10 08:27:46;;;;;;;1.40;1.00;;;24.10;55.10;;;;;;5526262;26;20608;-68
2024/04/10 08:30:12;;;;;;;1.70;1.10;;;24.10;55.10;;;;;;5526300;26;20272;-68
2024/04/10 08:32:37;;;;;;;2.50;1.47;;;24.10;55.10;;;;;;5526755;26;20547;-69
2024/04/10 08:35:04;;;;;;;1.40;1.00;;;24.10;55.20;;;;;;5526523;25;20217;-67
2024/04/10 08:37:30;;;;;;;1.70;1.10;;;24.10;55.20;;;;;;5526035;25;20217;-68
2024/04/10 08:39:56;;;;;;;3.10;1.40;;;24.10;55.20;;;;;;5526291;25;21319;-68
2024/04/10 08:42:23;;;;;;;1.83;1.00;;;24.10;55.30;;;;;;5526192;25;20462;-70
2024/04/10 08:44:52;;;;;;;2.10;1.07;;;24.10;55.30;;;;;;5526064;25;20221;-70
2024/04/10 08:47:19;;;;;;;2.30;1.00;;;24.10;55.30;;;;;;5525851;25;20454;-69
2024/04/10 08:49:44;;;;;;;2.27;1.13;;;24.10;55.30;;;;;;5525560;25;20510;-67
2024/04/10 08:52:11;;;;;;;1.90;0.87;;;24.10;55.30;;;;;;5525601;26;20457;-69
2024/04/10 08:54:37;;;;;;;1.60;1.20;;;24.10;55.30;;;;;;5525802;26;20763;-69
2024/04/10 08:57:03;;;;;;;1.20;0.90;;;24.10;55.20;;;;;;5526015;26;20571;-67
2024/04/10 08:59:30;;;;;;;1.77;0.93;;;24.10;55.20;;;;;;5526229;25;20465;-68
2024/04/10 09:01:57;;;;;;;1.60;1.10;;;24.10;55.20;;;;;;5525668;26;20470;-69
2024/04/10 09:04:24;;;;;;;2.40;1.20;;;24.10;55.20;;;;;;5525847;25;20491;-68
2024/04/10 09:07:03;;;;;;;4.50;1.00;;;24.10;55.20;;;;;;5526225;26;21023;-68
2024/04/10 09:09:29;;;;;;;1.20;1.00;;;24.10;55.10;;;;;;5525764;25;20519;-67
2024/04/10 09:11:55;;;;;;;1.57;0.90;;;24.10;55.10;;;;;;5525736;26;20454;-68
2024/04/10 09:14:20;;;;;;;2.03;0.93;;;24.10;55.10;;;;;;5525563;26;20218;-68
2024/04/10 09:16:46;;;;;;;1.33;0.90;;;24.10;55.20;;;;;;5525567;26;20213;-68
2024/04/10 09:19:17;;;;;;;1.37;1.00;;;24.10;55.20;;;;;;5525632;25;20217;-68
2024/04/10 09:21:56;;;;;;;1.77;1.00;;;24.10;55.20;;;;;;5525328;26;20365;-69
2024/04/10 09:24:29;;;;;;;2.43;1.00;;;24.20;55.20;;;;;;5523549;26;20465;-69
2024/04/10 09:26:56;;;;;;;1.97;1.03;;;24.10;55.20;;;;;;5525757;25;20514;-68
2024/04/10 09:29:24;;;;;;;1.30;0.90;;;24.10;55.20;;;;;;5525077;25;20458;-69
2024/04/10 09:31:51;;;;;;;1.47;0.97;;;24.10;55.20;;;;;;5525455;25;20462;-68
2024/04/10 09:34:21;;;;;;;1.20;0.93;;;24.10;55.30;;;;;;5525249;25;21211;-68
2024/04/10 09:36:47;;;;;;;1.20;0.80;;;24.10;55.20;;;;;;5525055;25;20446;-69
2024/04/10 09:39:17;;;;;;;2.33;0.90;;;24.10;55.30;;;;;;5524719;26;20446;-68
2024/04/10 09:41:47;;;;;;;2.07;0.70;;;24.10;55.40;;;;;;5525008;25;20279;-69
2024/04/10 09:44:19;;;;;;;3.80;1.10;;;24.10;55.40;;;;;;5525124;25;20501;-69
2024/04/10 09:46:51;;;;;;;1.77;0.90;;;24.10;55.40;;;;;;5525580;25;20442;-68
2024/04/10 09:49:21;;;;;;;1.17;0.70;;;24.20;55.50;;;;;;5525211;25;20446;-68
2024/04/10 09:51:47;;;;;;;1.10;0.80;;;24.20;55.50;;;;;;5525088;25;21027;-67
2024/04/10 09:54:13;;;;;;;1.53;1.00;;;24.20;55.50;;;;;;5524797;26;20489;-69
2024/04/10 09:56:43;;;;;;;1.30;0.90;;;24.20;55.50;;;;;;5524878;25;20267;-67
2024/04/10 09:59:12;;;;;;;1.83;1.20;;;24.20;55.40;;;;;;5524787;25;20462;-68
2024/04/10 10:01:38;;;;;;;1.60;1.00;;;24.20;55.40;;;;;;5524732;25;20550;-69
2024/04/10 10:04:03;;;;;;;1.50;1.00;;;24.20;55.40;;;;;;5524371;26;20438;-69
2024/04/10 10:06:31;;;;;;;2.07;1.10;;;24.20;55.40;;;;;;5522717;26;20259;-68
2024/04/10 10:08:58;;;;;;;2.10;1.00;;;24.20;55.40;;;;;;5524948;25;20704;-69
2024/04/10 10:11:24;;;;;;;3.23;0.80;;;24.20;55.40;;;;;;5524756;25;20477;-68
2024/04/10 10:14:00;;;;;;;1.37;0.90;;;24.20;55.40;;;;;;5524734;25;20496;-67
2024/04/10 10:16:27;;;;;;;1.67;0.83;;;24.20;55.40;;;;;;5522817;26;20571;-70
2024/04/10 10:18:56;;;;;;;3.53;1.00;;;24.20;55.40;;;;;;5524908;25;20501;-68
2024/04/10 10:21:23;;;;;;;1.73;0.70;;;24.20;55.30;;;;;;5524577;25;20457;-67
2024/04/10 10:24:01;;;;;;;1.50;0.90;;;24.20;55.30;;;;;;5522643;26;20454;-69
2024/04/10 10:26:27;;;;;;;2.57;0.97;;;24.20;55.30;;;;;;5524847;25;21110;-69
2024/04/10 10:29:06;;;;;;;2.17;1.20;;;24.20;55.30;;;;;;5524402;25;20469;-67
2024/04/10 10:31:33;;;;;;;1.13;0.83;;;24.20;55.20;;;;;;5524283;25;20461;-68
2024/04/10 10:34:03;;;;;;;1.60;0.90;;;24.20;55.30;;;;;;5524540;25;20864;-69
2024/04/10 10:36:36;;;;;;;1.10;0.70;;;24.20;55.30;;;;;;5524659;25;20438;-68
2024/04/10 10:39:10;;;;;;;1.60;0.83;;;24.20;55.30;;;;;;5524801;25;20442;-69
2024/04/10 10:41:35;;;;;;;1.73;1.30;;;24.20;55.30;;;;;;5524664;25;20544;-68
2024/04/10 10:44:01;;;;;;;1.13;0.90;;;24.20;55.40;;;;;;5524398;25;20486;-69
2024/04/10 10:46:27;;;;;;;1.40;0.87;;;24.20;55.40;;;;;;5524465;26;20210;-69
2024/04/10 10:48:53;;;;;;;1.60;0.90;;;24.20;55.50;;;;;;5523115;25;20332;-67
2024/04/10 10:51:19;;;;;;;1.93;0.70;;;24.20;55.50;;;;;;5524152;25;20457;-68
2024/04/10 10:53:48;;;;;;;1.10;0.90;;;24.20;55.50;;;;;;5524411;26;20251;-69
2024/04/10 10:56:23;;;;;;;1.90;0.97;;;24.20;55.50;;;;;;5524436;25;20217;-69
2024/04/10 10:58:48;;;;;;;1.00;0.70;;;24.20;55.50;;;;;;5524338;25;20961;-68
2024/04/10 11:01:14;;;;;;;1.57;1.00;;;24.20;55.50;;;;;;5523970;26;20526;-68
2024/04/10 11:03:40;;;;;;;1.20;0.80;;;24.20;55.50;;;;;;5524035;26;20574;-70
2024/04/10 11:06:12;;;;;;;1.20;0.87;;;24.20;55.50;;;;;;5523842;26;20217;-68
2024/04/10 11:08:38;;;;;;;2.97;1.33;;;24.20;55.50;;;;;;5524503;25;20692;-70
2024/04/10 11:11:04;;;;;;;8.13;3.03;;;24.20;55.50;;;;;;5523782;26;20518;-69
2024/04/10 11:13:30;;;;;;;26.00;7.43;;;24.20;55.50;;;;;;5523860;25;21020;-66
2024/04/10 11:15:59;;;;;;;27.77;9.90;;;24.20;55.50;;;;;;5524020;25;21021;-69
2024/04/10 11:18:26;;;;;;;36.37;13.83;;;24.20;55.50;;;;;;5523837;25;20509;-68
2024/04/10 11:20:52;;;;;;;39.30;13.60;;;24.20;55.40;;;;;;5523455;25;20887;-69
2024/04/10 11:23:19;;;;;;;34.27;14.87;;;24.20;55.40;;;;;;5522980;25;20465;-67
2024/04/10 11:25:45;;;;;;;48.80;15.97;;;24.20;55.40;;;;;;5523337;25;20539;-68
2024/04/10 11:28:11;;;;;;;41.63;15.87;;;24.20;55.30;;;;;;5523779;25;20980;-69
2024/04/10 11:30:38;;;;;;;46.83;17.40;;;24.20;55.30;;;;;;5522912;25;20323;-69
2024/04/10 11:33:07;;;;;;;35.57;15.53;;;24.20;55.20;;;;;;5522944;25;20450;-69
2024/04/10 11:35:35;;;;;;;44.03;14.30;;;24.20;55.20;;;;;;5523635;26;20563;-68
2024/04/10 11:38:01;;;;;;;32.93;12.53;;;24.20;55.10;;;;;;5523092;26;20493;-69
2024/04/10 11:40:27;;;;;;;32.87;11.50;;;24.20;54.90;;;;;;5523316;26;20458;-66
2024/04/10 11:42:52;;;;;;;30.63;12.03;;;24.20;54.80;;;;;;5522814;26;20264;-69
2024/04/10 11:45:18;;;;;;;31.00;11.77;;;24.20;54.70;;;;;;5523085;26;20222;-69
2024/04/10 11:47:45;;;;;;;30.50;10.93;;;24.20;54.60;;;;;;5522818;26;20337;-69
2024/04/10 11:50:12;;;;;;;28.10;10.33;;;24.20;54.60;;;;;;5522645;25;20559;-69
2024/04/10 11:52:38;;;;;;;21.80;10.60;;;24.20;54.60;;;;;;5523176;25;20505;-69
2024/04/10 11:55:05;;;;;;;28.90;10.93;;;24.20;54.50;;;;;;5522741;25;20532;-68
2024/04/10 11:57:32;;;;;;;20.17;8.83;;;24.20;54.50;;;;;;5522691;25;20458;-69
2024/04/10 11:59:58;;;;;;;28.73;10.70;;;24.20;54.50;;;;;;5526117;25;20454;-69
2024/04/10 12:02:26;;;;;;;21.90;9.53;;;24.20;54.40;;;;;;5526515;25;20461;-67
2024/04/10 12:04:52;;;;;;;17.40;8.40;;;24.20;54.40;;;;;;5526115;26;20778;-69
2024/04/10 12:07:21;;;;;;;20.27;8.00;;;24.10;54.20;;;;;;5526252;25;20445;-69
2024/04/10 12:09:47;;;;;;;21.33;8.90;;;24.10;54.20;;;;;;5521878;25;20509;-70
2024/04/10 12:12:13;;;;;;;18.00;7.77;;;24.10;54.20;;;;;;5529482;25;20469;-70
2024/04/10 12:14:42;;;;;;;18.27;7.40;;;24.10;54.20;;;;;;5535850;25;20224;-68
2024/04/10 12:17:08;;;;;;;16.80;7.50;;;24.20;54.40;;;;;;5564013;25;20612;-69
2024/04/10 12:19:34;;;;;;;16.17;7.50;;;24.10;54.50;;;;;;5564186;25;20503;-68
2024/04/10 12:22:00;;;;;;;18.07;8.63;;;24.10;54.60;;;;;;5563968;25;20555;-68
2024/04/10 12:24:25;;;;;;;16.70;6.50;;;24.10;54.70;;;;;;5563714;25;20630;-68
2024/04/10 12:26:51;;;;;;;19.03;7.47;;;24.10;54.80;;;;;;5563914;25;20259;-69
2024/04/10 12:29:16;;;;;;;13.60;6.80;;;24.10;54.80;;;;;;5563500;25;20212;-68
2024/04/10 12:31:43;;;;;;;18.37;7.50;;;24.10;54.80;;;;;;5563667;25;20623;-68
2024/04/10 12:34:09;;;;;;;11.93;5.90;;;24.10;54.80;;;;;;5563148;25;20255;-68
2024/04/10 12:39:18;;;;;;;12.70;6.20;;;24.10;54.50;;;;;;5563540;25;20267;-68
2024/04/10 12:41:54;;;;;;;12.70;5.73;;;24.10;54.40;;;;;;5563300;25;20453;-68
2024/04/10 12:44:21;;;;;;;9.53;5.67;;;24.10;54.30;;;;;;5563092;25;20745;-68
2024/04/10 12:46:51;;;;;;;8.37;4.80;;;24.10;54.30;;;;;;5563639;25;20452;-68